Time;durP1;ratioP1;P1;durP2;ratioP2;P2;SDS_P1;SDS_P2;PMS_P1;PMS_P2;Temp;Humidity;BMP_temperature;BMP_pressure;BME280_temperature;BME280_humidity;BME280_pressure;Samples;Min_cycle;Max_cycle;Signal;HPM_P1;HPM_P2
2023/10/27 00:00:57;;;;;;;7.93;2.20;;;10.00;99.90;;;;;;5112479;28;20024;-64
2023/10/27 00:03:23;;;;;;;7.00;2.25;;;10.00;99.90;;;;;;5111272;28;20367;-65
2023/10/27 00:05:49;;;;;;;8.27;2.20;;;10.00;99.90;;;;;;5106428;28;20028;-65
2023/10/27 00:08:14;;;;;;;6.60;2.00;;;9.90;99.90;;;;;;5105623;28;20028;-65
2023/10/27 00:10:40;;;;;;;8.02;2.72;;;10.00;99.90;;;;;;5099744;28;20020;-65
2023/10/27 00:13:06;;;;;;;5.90;2.25;;;10.00;99.90;;;;;;5112054;28;20030;-64
2023/10/27 00:15:31;;;;;;;6.03;2.33;;;9.90;99.90;;;;;;5108687;28;20134;-65
2023/10/27 00:17:58;;;;;;;7.78;1.98;;;9.90;99.90;;;;;;5112005;28;20028;-65
2023/10/27 00:20:24;;;;;;;7.65;2.22;;;9.90;99.90;;;;;;5111590;28;20024;-64
2023/10/27 00:22:50;;;;;;;7.25;1.98;;;9.90;99.90;;;;;;5112080;28;20028;-64
2023/10/27 00:25:15;;;;;;;6.50;1.70;;;9.90;99.90;;;;;;5111442;28;20498;-65
2023/10/27 00:27:41;;;;;;;9.32;2.10;;;9.90;99.90;;;;;;5100171;28;20105;-63
2023/10/27 00:30:08;;;;;;;4.88;1.77;;;9.80;99.90;;;;;;5111823;28;20466;-64
2023/10/27 00:32:33;;;;;;;8.57;1.80;;;9.80;99.90;;;;;;5110102;28;20047;-63
2023/10/27 00:34:59;;;;;;;8.65;1.73;;;9.80;99.90;;;;;;5106303;28;20096;-63
2023/10/27 00:37:24;;;;;;;6.95;2.05;;;9.80;99.90;;;;;;5078411;28;20024;-63
2023/10/27 00:39:50;;;;;;;9.27;1.95;;;9.80;99.90;;;;;;5107471;28;20375;-63
2023/10/27 00:42:16;;;;;;;5.20;1.63;;;9.80;99.90;;;;;;5111194;28;20015;-63
2023/10/27 00:44:41;;;;;;;5.80;1.40;;;9.80;99.90;;;;;;5111414;28;20410;-63
2023/10/27 00:47:08;;;;;;;8.05;2.08;;;9.70;99.90;;;;;;5111626;28;20026;-63
2023/10/27 00:49:34;;;;;;;7.85;2.05;;;9.80;99.90;;;;;;5107698;28;20026;-63
2023/10/27 00:52:00;;;;;;;4.55;1.45;;;9.70;99.90;;;;;;5098407;28;20028;-63
2023/10/27 00:54:27;;;;;;;9.75;1.83;;;9.70;99.90;;;;;;5110244;28;20099;-63
2023/10/27 00:56:54;;;;;;;5.35;1.48;;;9.80;99.90;;;;;;5112406;28;20012;-63
2023/10/27 00:59:20;;;;;;;8.15;1.65;;;9.80;99.90;;;;;;5110844;28;20016;-63
2023/10/27 01:01:45;;;;;;;6.30;1.60;;;9.70;99.90;;;;;;5111252;28;20106;-63
2023/10/27 01:04:11;;;;;;;10.85;1.83;;;9.70;99.90;;;;;;5111285;28;20015;-63
2023/10/27 01:06:37;;;;;;;5.88;1.70;;;9.70;99.90;;;;;;5110998;28;20035;-63
2023/10/27 01:09:02;;;;;;;7.28;1.83;;;9.70;99.90;;;;;;5107109;28;20424;-63
2023/10/27 01:11:28;;;;;;;4.80;1.40;;;9.70;99.90;;;;;;5099225;28;20020;-63
2023/10/27 01:13:54;;;;;;;6.60;1.63;;;9.70;99.90;;;;;;5121313;27;20111;-63
2023/10/27 01:16:23;;;;;;;5.38;1.80;;;9.70;99.90;;;;;;5128461;27;20039;-63
2023/10/27 01:18:48;;;;;;;7.28;1.73;;;9.70;99.90;;;;;;5135853;27;20098;-63
2023/10/27 01:21:14;;;;;;;9.98;2.28;;;9.60;99.90;;;;;;5135868;27;20229;-63
2023/10/27 01:23:39;;;;;;;7.10;2.00;;;9.60;99.90;;;;;;5135547;27;20022;-63
2023/10/27 01:26:05;;;;;;;3.50;1.63;;;9.60;99.90;;;;;;5136481;27;20423;-63
2023/10/27 01:28:31;;;;;;;4.43;1.70;;;9.50;99.90;;;;;;5134627;27;20015;-63
2023/10/27 01:30:57;;;;;;;7.80;1.85;;;9.60;99.90;;;;;;5135738;27;20383;-63
2023/10/27 01:33:24;;;;;;;5.65;1.40;;;9.50;99.90;;;;;;5134567;27;20022;-63
2023/10/27 01:35:51;;;;;;;6.65;2.05;;;9.50;99.90;;;;;;5130555;27;20030;-63
2023/10/27 01:38:17;;;;;;;5.15;1.50;;;9.50;99.90;;;;;;5134795;27;20038;-63
2023/10/27 01:40:42;;;;;;;4.03;1.58;;;9.50;99.90;;;;;;5130953;27;20011;-62
2023/10/27 01:43:08;;;;;;;5.18;1.70;;;9.50;99.90;;;;;;5135518;27;20105;-62
2023/10/27 01:45:34;;;;;;;6.25;1.63;;;9.50;99.90;;;;;;5135022;27;20050;-63
2023/10/27 01:48:00;;;;;;;5.40;1.88;;;9.40;99.90;;;;;;5135101;27;20051;-63
2023/10/27 01:50:25;;;;;;;5.63;1.80;;;9.40;99.90;;;;;;5134628;27;20363;-63
2023/10/27 01:52:51;;;;;;;5.15;2.00;;;9.40;99.90;;;;;;5135148;27;20023;-63
2023/10/27 01:55:17;;;;;;;7.65;2.00;;;9.40;99.90;;;;;;5135071;27;20098;-63
2023/10/27 01:57:43;;;;;;;7.28;2.15;;;9.40;99.90;;;;;;5116605;27;20023;-63
2023/10/27 02:00:09;;;;;;;4.60;1.70;;;9.40;99.90;;;;;;5135778;27;20018;-62
2023/10/27 02:02:35;;;;;;;5.68;1.58;;;9.40;99.90;;;;;;5134451;27;20543;-63
2023/10/27 02:05:05;;;;;;;5.45;1.50;;;9.30;99.90;;;;;;5135653;27;20077;-63
2023/10/27 02:07:31;;;;;;;8.73;1.77;;;9.30;99.90;;;;;;5134101;27;20409;-63
2023/10/27 02:09:59;;;;;;;9.05;2.33;;;9.40;99.90;;;;;;5135435;27;20031;-63
2023/10/27 02:12:26;;;;;;;3.47;1.52;;;9.30;99.90;;;;;;5124595;27;20087;-63
2023/10/27 02:14:51;;;;;;;6.97;1.80;;;9.30;99.90;;;;;;5124518;27;20018;-63
2023/10/27 02:17:17;;;;;;;5.47;1.80;;;9.30;99.90;;;;;;5134619;27;20361;-63
2023/10/27 02:19:43;;;;;;;7.78;1.80;;;9.30;99.90;;;;;;5134622;27;20092;-64
2023/10/27 02:22:08;;;;;;;4.05;1.40;;;9.30;99.90;;;;;;5135677;27;20094;-63
2023/10/27 02:24:34;;;;;;;3.53;1.33;;;9.30;99.90;;;;;;5133540;27;20023;-63
2023/10/27 02:27:00;;;;;;;6.88;1.75;;;9.30;99.90;;;;;;5135101;27;20019;-64
2023/10/27 02:29:26;;;;;;;4.85;1.85;;;9.20;99.90;;;;;;5133658;27;20432;-64
2023/10/27 02:31:52;;;;;;;4.70;1.50;;;9.20;99.90;;;;;;5134501;27;20027;-64
2023/10/27 02:34:17;;;;;;;5.40;1.75;;;9.20;99.90;;;;;;5133187;27;20027;-64
2023/10/27 02:36:43;;;;;;;6.13;2.25;;;9.20;99.90;;;;;;5134860;27;20027;-64
2023/10/27 02:39:08;;;;;;;3.95;2.05;;;9.20;99.90;;;;;;5134723;27;20019;-64
2023/10/27 02:41:35;;;;;;;4.07;1.50;;;9.20;99.90;;;;;;5134120;27;20346;-64
2023/10/27 02:44:01;;;;;;;5.82;1.73;;;9.20;99.90;;;;;;5134119;27;20436;-64
2023/10/27 02:46:27;;;;;;;7.75;1.70;;;9.20;99.90;;;;;;5131465;27;20114;-64
2023/10/27 02:48:52;;;;;;;6.60;1.70;;;9.20;99.90;;;;;;5133601;27;20019;-64
2023/10/27 02:51:18;;;;;;;6.43;1.60;;;9.10;99.90;;;;;;5133396;27;20011;-64
2023/10/27 02:53:44;;;;;;;3.85;1.65;;;9.10;99.90;;;;;;5133434;27;20702;-65
2023/10/27 02:56:10;;;;;;;4.18;1.60;;;9.10;99.90;;;;;;5131667;27;20102;-64
2023/10/27 02:58:36;;;;;;;4.43;1.23;;;9.20;99.90;;;;;;5132661;27;20215;-64
2023/10/27 03:01:09;;;;;;;6.90;1.85;;;9.10;99.90;;;;;;5134123;27;20027;-65
2023/10/27 03:03:38;;;;;;;6.32;1.40;;;7.80;99.90;;;;;;5124185;27;20083;-65
2023/10/27 03:06:04;;;;;;;6.07;1.75;;;;;;;;;;5133899;27;20031;-65
2023/10/27 03:08:32;;;;;;;3.90;1.70;;;9.10;99.90;;;;;;5132625;27;20135;-66
2023/10/27 03:10:57;;;;;;;5.55;1.45;;;9.10;99.90;;;;;;5134043;27;20022;-66
2023/10/27 03:13:23;;;;;;;6.60;2.15;;;9.10;99.90;;;;;;5132644;27;20015;-65
2023/10/27 03:15:48;;;;;;;2.92;1.30;;;9.10;99.90;;;;;;5129433;27;20039;-65
2023/10/27 03:18:14;;;;;;;4.43;1.80;;;9.10;99.90;;;;;;5121755;27;20023;-64
2023/10/27 03:20:40;;;;;;;2.72;1.30;;;9.00;99.90;;;;;;5123644;27;20034;-63
2023/10/27 03:23:05;;;;;;;2.22;1.35;;;9.10;99.90;;;;;;5123359;27;20098;-64
2023/10/27 03:25:31;;;;;;;4.00;1.50;;;9.10;99.90;;;;;;5121804;27;20353;-64
2023/10/27 03:27:56;;;;;;;5.43;1.73;;;9.10;99.90;;;;;;5123193;27;20039;-63
2023/10/27 03:30:22;;;;;;;3.35;1.48;;;9.00;99.90;;;;;;5118653;27;20059;-63
2023/10/27 03:32:48;;;;;;;4.53;1.70;;;9.10;99.90;;;;;;5119575;27;20035;-63
2023/10/27 03:35:15;;;;;;;5.90;1.73;;;9.10;99.90;;;;;;5122752;27;20041;-63
2023/10/27 03:37:40;;;;;;;4.97;1.52;;;9.10;99.90;;;;;;5122674;27;20023;-63
2023/10/27 03:40:07;;;;;;;5.78;1.98;;;9.10;99.90;;;;;;5123280;27;20454;-63
2023/10/27 03:42:33;;;;;;;5.90;1.70;;;9.10;99.90;;;;;;5119826;27;20157;-63
2023/10/27 03:44:58;;;;;;;5.65;1.83;;;9.00;99.90;;;;;;5124096;27;20451;-63
2023/10/27 03:47:24;;;;;;;6.60;1.52;;;9.00;99.90;;;;;;5115976;27;20455;-63
2023/10/27 03:49:50;;;;;;;4.22;1.35;;;9.00;99.90;;;;;;5119037;27;20050;-63
2023/10/27 03:52:16;;;;;;;2.92;1.90;;;9.00;99.90;;;;;;5115940;27;20028;-63
2023/10/27 03:54:42;;;;;;;3.95;1.50;;;9.00;99.90;;;;;;5112374;28;20026;-63
2023/10/27 03:57:07;;;;;;;3.95;1.42;;;9.10;99.90;;;;;;5108922;28;20019;-63
2023/10/27 03:59:33;;;;;;;5.60;1.60;;;9.00;99.90;;;;;;5111517;28;20444;-63
2023/10/27 04:01:58;;;;;;;4.18;1.90;;;9.00;99.90;;;;;;5113031;28;20020;-63
2023/10/27 04:04:24;;;;;;;4.40;1.73;;;9.00;99.90;;;;;;5110315;28;20790;-63
2023/10/27 04:06:50;;;;;;;5.50;1.60;;;9.00;99.90;;;;;;5111002;28;20046;-63
2023/10/27 04:09:16;;;;;;;4.30;1.65;;;9.00;99.90;;;;;;5111776;28;20019;-63
2023/10/27 04:11:42;;;;;;;3.10;1.23;;;9.00;99.90;;;;;;5111922;28;20020;-63
2023/10/27 04:14:07;;;;;;;4.10;1.60;;;8.90;99.90;;;;;;5119645;27;20023;-63
2023/10/27 04:16:34;;;;;;;6.00;1.45;;;8.90;99.90;;;;;;5112268;27;20051;-63
2023/10/27 04:19:00;;;;;;;4.07;1.70;;;8.90;99.90;;;;;;5112163;28;20068;-63
2023/10/27 04:21:26;;;;;;;4.72;2.13;;;8.90;99.90;;;;;;5109688;28;20024;-63
2023/10/27 04:23:51;;;;;;;5.70;1.70;;;9.00;99.90;;;;;;5111829;28;20027;-63
2023/10/27 04:26:17;;;;;;;4.15;1.48;;;8.90;99.90;;;;;;5111393;28;20024;-63
2023/10/27 04:28:42;;;;;;;7.75;1.70;;;9.00;99.90;;;;;;5111680;28;20012;-63
2023/10/27 04:31:09;;;;;;;4.22;1.80;;;9.00;99.90;;;;;;5111681;28;20095;-63
2023/10/27 04:33:38;;;;;;;4.05;1.60;;;9.00;99.90;;;;;;5110754;28;20091;-63
2023/10/27 04:36:07;;;;;;;4.67;1.80;;;9.00;99.90;;;;;;5111791;28;20472;-63
2023/10/27 04:38:32;;;;;;;3.83;1.70;;;9.00;99.90;;;;;;5110054;28;20880;-63
2023/10/27 04:40:58;;;;;;;5.25;1.33;;;9.10;99.90;;;;;;5111782;28;20094;-63
2023/10/27 04:43:23;;;;;;;4.82;1.70;;;9.00;99.90;;;;;;5092028;28;20103;-63
2023/10/27 04:45:50;;;;;;;3.00;1.60;;;9.00;99.90;;;;;;5111835;28;20027;-63
2023/10/27 04:48:16;;;;;;;5.13;1.40;;;9.10;99.90;;;;;;5111068;28;20055;-63
2023/10/27 04:50:41;;;;;;;4.70;1.58;;;9.10;99.90;;;;;;5121847;28;20479;-63
2023/10/27 04:53:07;;;;;;;4.80;1.67;;;9.10;99.90;;;;;;5111384;28;20015;-63
2023/10/27 04:55:33;;;;;;;3.72;1.38;;;9.10;99.90;;;;;;5109370;28;20176;-63
2023/10/27 04:57:58;;;;;;;2.53;1.20;;;9.20;99.90;;;;;;5111570;28;20410;-63
2023/10/27 05:00:24;;;;;;;4.03;1.40;;;9.20;99.90;;;;;;5110787;28;20056;-63
2023/10/27 05:02:53;;;;;;;6.88;2.72;;;9.30;99.90;;;;;;5111471;28;20361;-66
2023/10/27 05:05:20;;;;;;;6.60;2.00;;;9.40;99.90;;;;;;5111156;28;20464;-63
2023/10/27 05:07:47;;;;;;;6.05;1.60;;;9.50;99.90;;;;;;5092728;28;20030;-63
2023/10/27 05:10:13;;;;;;;5.60;2.10;;;9.50;99.90;;;;;;5111582;28;20015;-65
2023/10/27 05:12:38;;;;;;;6.68;1.85;;;9.50;99.90;;;;;;5105621;28;20023;-66
2023/10/27 05:15:05;;;;;;;7.45;1.75;;;9.40;99.90;;;;;;5111175;28;20456;-66
2023/10/27 05:17:35;;;;;;;5.93;1.83;;;9.30;99.90;;;;;;5110222;28;20364;-64
2023/10/27 05:20:03;;;;;;;3.20;1.67;;;9.40;99.90;;;;;;5092845;28;20063;-67
2023/10/27 05:22:29;;;;;;;3.20;1.70;;;9.40;99.90;;;;;;5109945;28;20020;-65
2023/10/27 05:24:54;;;;;;;10.38;1.83;;;9.30;99.90;;;;;;5110755;28;20460;-64
2023/10/27 05:27:20;;;;;;;5.20;2.28;;;9.30;99.90;;;;;;5107158;28;20050;-65
2023/10/27 05:29:46;;;;;;;5.20;2.20;;;9.20;99.90;;;;;;5104283;28;20565;-65
2023/10/27 05:32:13;;;;;;;4.15;1.60;;;9.20;99.90;;;;;;5100574;28;20040;-64
2023/10/27 05:34:38;;;;;;;4.05;2.08;;;9.20;99.90;;;;;;5096695;28;20036;-64
2023/10/27 05:37:04;;;;;;;5.30;1.70;;;9.10;99.90;;;;;;5109158;28;20510;-64
2023/10/27 05:39:30;;;;;;;5.32;1.70;;;9.20;99.90;;;;;;5108972;28;20019;-64
2023/10/27 05:41:55;;;;;;;3.72;1.60;;;9.20;99.90;;;;;;5109308;28;20133;-64
2023/10/27 05:44:21;;;;;;;3.85;2.10;;;9.20;99.90;;;;;;5109019;28;20028;-65
2023/10/27 05:46:47;;;;;;;6.07;2.33;;;9.20;99.90;;;;;;5107641;28;20036;-65
2023/10/27 05:49:12;;;;;;;5.30;1.38;;;9.20;99.90;;;;;;5109407;28;20015;-65
2023/10/27 05:51:38;;;;;;;3.17;1.33;;;9.20;99.90;;;;;;5109831;28;20058;-64
2023/10/27 05:54:05;;;;;;;2.33;1.40;;;9.20;99.90;;;;;;5109046;28;20532;-64
2023/10/27 05:56:31;;;;;;;3.47;0.98;;;9.10;99.90;;;;;;5112588;28;20027;-64
2023/10/27 05:58:56;;;;;;;3.78;1.58;;;9.10;99.90;;;;;;5113256;28;20444;-65
2023/10/27 06:01:23;;;;;;;3.22;1.20;;;9.20;99.90;;;;;;5112694;28;20012;-64
2023/10/27 06:03:49;;;;;;;3.03;1.30;;;9.20;99.90;;;;;;5111107;28;20766;-65
2023/10/27 06:06:14;;;;;;;7.32;1.33;;;9.20;99.90;;;;;;5113197;28;20149;-65
2023/10/27 06:08:44;;;;;;;2.28;1.30;;;9.20;99.90;;;;;;5112792;28;20015;-66
2023/10/27 06:11:10;;;;;;;2.95;1.08;;;9.10;99.90;;;;;;5113508;27;20061;-66
2023/10/27 06:13:36;;;;;;;1.63;1.20;;;9.20;99.90;;;;;;5112698;28;20035;-64
2023/10/27 06:16:03;;;;;;;4.60;1.50;;;9.20;99.90;;;;;;5118317;27;20047;-66
2023/10/27 06:18:28;;;;;;;3.95;1.52;;;9.20;99.90;;;;;;5121775;27;20367;-64
2023/10/27 06:20:54;;;;;;;1.73;1.23;;;9.20;99.90;;;;;;5119977;27;20021;-64
2023/10/27 06:23:19;;;;;;;2.47;1.27;;;9.30;99.90;;;;;;5121999;27;20018;-64
2023/10/27 06:25:45;;;;;;;2.90;1.27;;;9.30;99.90;;;;;;5123202;27;20096;-65
2023/10/27 06:28:10;;;;;;;2.30;1.55;;;9.30;99.90;;;;;;5122819;27;20093;-64
2023/10/27 06:30:36;;;;;;;2.38;1.40;;;9.30;99.90;;;;;;5094816;28;20530;-65
2023/10/27 06:33:02;;;;;;;1.83;1.00;;;9.30;99.90;;;;;;5113784;27;20039;-64
2023/10/27 06:35:28;;;;;;;1.65;1.25;;;9.30;99.90;;;;;;5112824;28;20464;-65
2023/10/27 06:37:54;;;;;;;2.05;1.20;;;9.30;99.90;;;;;;5112037;28;20094;-65
2023/10/27 06:40:19;;;;;;;1.48;1.25;;;9.40;99.90;;;;;;5113245;28;20043;-64
2023/10/27 06:42:45;;;;;;;1.52;1.20;;;9.40;99.90;;;;;;5113144;28;20091;-64
2023/10/27 06:45:11;;;;;;;1.15;0.85;;;9.40;99.90;;;;;;5113636;28;20028;-64
2023/10/27 06:47:36;;;;;;;1.95;0.98;;;9.50;99.90;;;;;;5114080;27;20034;-65
2023/10/27 06:50:04;;;;;;;2.53;0.80;;;9.60;99.90;;;;;;5114006;28;20087;-65
2023/10/27 06:52:30;;;;;;;1.35;0.80;;;9.60;99.90;;;;;;5112576;28;20020;-65
2023/10/27 06:54:56;;;;;;;0.77;0.70;;;9.70;99.90;;;;;;5112619;28;20023;-65
2023/10/27 06:57:21;;;;;;;0.73;0.50;;;9.70;99.90;;;;;;5112187;28;20020;-64
2023/10/27 06:59:47;;;;;;;1.13;0.60;;;9.90;99.90;;;;;;5113594;28;20028;-69
2023/10/27 07:02:12;;;;;;;0.60;0.50;;;9.90;99.90;;;;;;5113434;28;20228;-64
2023/10/27 07:04:38;;;;;;;1.90;0.68;;;9.90;99.90;;;;;;5112584;28;20031;-64
2023/10/27 07:07:05;;;;;;;2.30;0.93;;;9.90;99.90;;;;;;5112248;28;20028;-64
2023/10/27 07:09:31;;;;;;;1.77;0.80;;;9.90;99.90;;;;;;5112036;28;20103;-65
2023/10/27 07:11:59;;;;;;;0.80;0.73;;;10.00;99.90;;;;;;5111206;28;20370;-64
2023/10/27 07:14:25;;;;;;;2.50;0.75;;;10.10;99.90;;;;;;5111708;28;20095;-65
2023/10/27 07:16:52;;;;;;;3.00;1.65;;;10.10;99.90;;;;;;5112496;28;20479;-65
2023/10/27 07:19:18;;;;;;;0.68;0.60;;;10.20;99.90;;;;;;5112072;28;20084;-64
2023/10/27 07:21:44;;;;;;;2.58;0.73;;;10.20;99.90;;;;;;5112940;28;20038;-65
2023/10/27 07:24:10;;;;;;;1.65;0.90;;;10.30;99.90;;;;;;5112558;28;20019;-65
2023/10/27 07:26:36;;;;;;;0.73;0.50;;;10.30;99.90;;;;;;5111334;28;20586;-65
2023/10/27 07:29:02;;;;;;;0.95;0.57;;;10.40;99.90;;;;;;5107881;28;20026;-65
2023/10/27 07:31:28;;;;;;;1.42;0.75;;;10.40;99.90;;;;;;5111632;28;20066;-65
2023/10/27 07:33:54;;;;;;;1.50;0.73;;;10.40;99.90;;;;;;5112716;28;20020;-65
2023/10/27 07:36:20;;;;;;;1.17;0.68;;;10.50;99.90;;;;;;5111890;28;20018;-64
2023/10/27 07:38:45;;;;;;;3.90;0.60;;;10.50;99.90;;;;;;5112580;28;20091;-65
2023/10/27 07:41:11;;;;;;;1.50;0.50;;;10.60;99.90;;;;;;5112579;28;20103;-65
2023/10/27 07:43:37;;;;;;;1.00;0.50;;;10.70;99.90;;;;;;5111656;28;20035;-64
2023/10/27 07:46:03;;;;;;;0.45;0.40;;;10.80;99.90;;;;;;5110617;28;20107;-66
2023/10/27 07:48:29;;;;;;;1.92;0.40;;;10.90;99.90;;;;;;5111400;28;20023;-65
2023/10/27 07:50:57;;;;;;;0.63;0.35;;;10.90;99.90;;;;;;5112068;28;20023;-67
2023/10/27 07:53:27;;;;;;;1.52;0.35;;;11.00;99.90;;;;;;5111629;28;20367;-66
2023/10/27 07:55:53;;;;;;;1.52;1.00;;;11.00;99.90;;;;;;5112403;28;20333;-66
2023/10/27 07:58:21;;;;;;;0.70;0.50;;;11.00;99.90;;;;;;5111153;28;20031;-66
2023/10/27 08:00:46;;;;;;;1.23;0.93;;;10.90;99.90;;;;;;5112561;28;20047;-67
2023/10/27 08:03:12;;;;;;;0.75;0.50;;;11.00;99.90;;;;;;5107448;28;20022;-66
2023/10/27 08:05:38;;;;;;;1.60;1.50;;;11.10;99.90;;;;;;5111385;28;20035;-66
2023/10/27 08:08:03;;;;;;;1.48;0.98;;;11.10;99.90;;;;;;5111973;28;20472;-66
2023/10/27 08:10:30;;;;;;;1.13;0.50;;;11.10;99.90;;;;;;5109124;28;20051;-66
2023/10/27 08:12:56;;;;;;;0.28;0.15;;;11.20;99.90;;;;;;5112194;28;20027;-66
2023/10/27 08:15:23;;;;;;;0.30;0.30;;;11.20;99.90;;;;;;5108549;28;20097;-66
2023/10/27 08:17:49;;;;;;;1.00;0.47;;;11.40;99.90;;;;;;5085397;28;20028;-66
2023/10/27 08:20:16;;;;;;;0.28;0.10;;;11.40;99.90;;;;;;5110409;28;20020;-66
2023/10/27 08:22:43;;;;;;;1.23;0.30;;;11.50;99.90;;;;;;5103757;28;20045;-66
2023/10/27 08:25:09;;;;;;;0.43;0.20;;;11.50;99.90;;;;;;5112217;28;20031;-66
2023/10/27 08:27:34;;;;;;;0.30;0.20;;;11.60;99.90;;;;;;5096982;28;20178;-66
2023/10/27 08:30:00;;;;;;;0.30;0.30;;;11.70;99.90;;;;;;5105769;28;20030;-66
2023/10/27 08:32:26;;;;;;;2.13;0.30;;;11.80;99.90;;;;;;5108679;28;20452;-66
2023/10/27 08:34:52;;;;;;;0.95;0.30;;;11.80;99.90;;;;;;5107056;28;20016;-66
2023/10/27 08:37:18;;;;;;;0.20;0.20;;;11.80;99.90;;;;;;5104176;28;20015;-67
2023/10/27 08:39:44;;;;;;;1.02;0.40;;;11.80;99.90;;;;;;5103625;28;20019;-67
2023/10/27 08:42:10;;;;;;;0.85;0.43;;;11.80;99.90;;;;;;5099974;28;20059;-66
2023/10/27 08:44:37;;;;;;;0.85;0.30;;;11.80;99.90;;;;;;5098659;28;20023;-66
2023/10/27 08:47:04;;;;;;;0.90;0.30;;;11.70;99.90;;;;;;5110238;28;20118;-64
2023/10/27 08:49:31;;;;;;;1.02;0.30;;;11.60;99.90;;;;;;5110616;28;20028;-65
2023/10/27 08:52:02;;;;;;;0.85;0.30;;;11.40;99.90;;;;;;5102951;28;20016;-65
2023/10/27 08:54:30;;;;;;;3.08;0.63;;;11.30;99.90;;;;;;5101837;28;20023;-65
2023/10/27 08:56:55;;;;;;;2.45;1.10;;;11.10;99.90;;;;;;5106916;28;20031;-65
2023/10/27 08:59:21;;;;;;;2.10;0.60;;;11.00;99.90;;;;;;5097339;28;20028;-66
2023/10/27 09:01:47;;;;;;;0.47;0.20;;;10.90;99.90;;;;;;5105555;28;20033;-65
2023/10/27 09:04:15;;;;;;;1.42;0.90;;;10.90;99.90;;;;;;5104703;28;20521;-66
2023/10/27 09:06:42;;;;;;;2.50;1.83;;;10.90;99.90;;;;;;5107450;28;20028;-66
2023/10/27 09:09:09;;;;;;;1.10;0.93;;;10.80;99.90;;;;;;5111475;28;20031;-65
2023/10/27 09:11:43;;;;;;;1.40;1.30;;;10.80;99.90;;;;;;5107531;28;20096;-66
2023/10/27 09:14:23;;;;;;;2.03;0.32;;;10.80;99.90;;;;;;5110979;28;20482;-65
2023/10/27 09:16:50;;;;;;;0.70;0.50;;;10.90;99.90;;;;;;5124888;27;20379;-65
2023/10/27 09:19:20;;;;;;;0.20;0.20;;;10.80;99.90;;;;;;5131136;28;20030;-65
2023/10/27 09:21:46;;;;;;;0.52;0.30;;;10.90;99.90;;;;;;5130970;28;20035;-66
2023/10/27 09:24:27;;;;;;;0.22;0.22;;;10.90;99.90;;;;;;5131753;28;20102;-65
2023/10/27 09:26:57;;;;;;;0.85;0.20;;;10.90;99.90;;;;;;5118670;27;20019;-65
2023/10/27 09:29:24;;;;;;;0.68;0.20;;;10.90;99.90;;;;;;5131100;27;20038;-65
2023/10/27 09:31:50;;;;;;;2.55;0.40;;;11.00;99.90;;;;;;5128481;27;20027;-65
2023/10/27 09:34:26;;;;;;;1.15;0.60;;;11.00;99.90;;;;;;5130730;27;20091;-65
2023/10/27 09:36:57;;;;;;;1.20;0.38;;;11.00;99.90;;;;;;5124708;27;20023;-65
2023/10/27 09:39:23;;;;;;;0.70;0.40;;;11.10;99.90;;;;;;5134569;27;20023;-65
2023/10/27 09:42:04;;;;;;;0.93;0.40;;;11.00;99.90;;;;;;5129214;27;20024;-65
2023/10/27 09:45:03;;;;;;;0.75;0.40;;;11.10;99.90;;;;;;5132546;27;20037;-65
2023/10/27 09:47:38;;;;;;;5.93;0.55;;;11.10;99.90;;;;;;5134115;27;20050;-65
2023/10/27 09:50:08;;;;;;;1.42;0.40;;;11.10;99.90;;;;;;5135378;27;20019;-65
2023/10/27 09:52:34;;;;;;;3.00;0.43;;;11.10;99.90;;;;;;5127063;27;20508;-65
2023/10/27 09:55:05;;;;;;;1.85;0.43;;;11.00;99.90;;;;;;5135187;27;20046;-65
2023/10/27 09:57:32;;;;;;;1.60;0.45;;;11.10;99.90;;;;;;5131924;27;20031;-66
2023/10/27 10:00:00;;;;;;;2.20;0.63;;;11.10;99.90;;;;;;5135387;27;20047;-66
2023/10/27 10:02:26;;;;;;;2.75;0.32;;;11.00;99.90;;;;;;5130341;27;20049;-65
2023/10/27 10:04:51;;;;;;;1.40;0.50;;;10.90;99.90;;;;;;5134896;27;20393;-67
2023/10/27 10:07:34;;;;;;;1.00;0.50;;;10.90;99.90;;;;;;5134260;27;20026;-66
2023/10/27 10:10:18;;;;;;;4.30;1.00;;;11.00;99.90;;;;;;5135092;27;20023;-65
2023/10/27 10:13:03;;;;;;;2.92;0.50;;;11.00;99.90;;;;;;5124135;27;20484;-66
2023/10/27 10:15:31;;;;;;;4.38;0.93;;;11.10;99.90;;;;;;5122865;27;20050;-66
2023/10/27 10:17:58;;;;;;;2.60;0.50;;;11.10;99.90;;;;;;5134713;27;20484;-66
2023/10/27 10:20:44;;;;;;;3.85;0.70;;;11.20;99.90;;;;;;5134182;27;20103;-65
2023/10/27 10:23:11;;;;;;;2.70;0.60;;;11.20;99.90;;;;;;5107204;27;20026;-66
2023/10/27 10:25:52;;;;;;;1.90;0.68;;;11.20;99.90;;;;;;5133924;27;20619;-65
2023/10/27 10:28:17;;;;;;;1.67;0.65;;;11.30;99.90;;;;;;5133639;27;20051;-66
2023/10/27 10:30:47;;;;;;;2.90;0.73;;;11.30;99.90;;;;;;5132864;27;20154;-65
2023/10/27 10:33:24;;;;;;;1.13;0.63;;;11.40;99.90;;;;;;5134610;27;20486;-67
2023/10/27 10:35:51;;;;;;;2.25;0.65;;;11.50;99.90;;;;;;5129076;27;20528;-68
2023/10/27 10:38:23;;;;;;;3.47;0.77;;;11.60;99.90;;;;;;5133729;27;20076;-67
2023/10/27 10:40:55;;;;;;;2.10;0.90;;;11.90;99.90;;;;;;5129735;27;20094;-65
2023/10/27 10:43:28;;;;;;;5.47;0.90;;;11.90;99.90;;;;;;5132996;27;20098;-67
2023/10/27 10:45:56;;;;;;;7.55;0.70;;;12.10;99.90;;;;;;5134476;27;20027;-66
2023/10/27 10:48:27;;;;;;;2.35;0.90;;;12.10;99.90;;;;;;5129238;27;20026;-66
2023/10/27 10:51:00;;;;;;;2.10;0.70;;;12.10;99.90;;;;;;5134459;27;20031;-66
2023/10/27 10:53:26;;;;;;;3.85;1.05;;;12.30;99.90;;;;;;5133583;27;20071;-66
2023/10/27 10:55:57;;;;;;;2.28;0.90;;;12.30;99.90;;;;;;5134668;27;20019;-66
2023/10/27 10:58:25;;;;;;;4.25;0.90;;;12.50;99.90;;;;;;5133325;27;20019;-66
2023/10/27 11:00:52;;;;;;;3.10;0.75;;;12.60;99.90;;;;;;5134310;27;20023;-66
2023/10/27 11:03:21;;;;;;;4.68;1.20;;;12.70;99.90;;;;;;5132938;27;20015;-66
2023/10/27 11:05:47;;;;;;;3.08;1.00;;;12.80;99.90;;;;;;5126328;27;20046;-66
2023/10/27 11:08:26;;;;;;;2.42;0.95;;;13.00;99.90;;;;;;5134114;27;20019;-66
2023/10/27 11:11:02;;;;;;;4.13;0.90;;;13.00;99.90;;;;;;5124034;27;20098;-66
2023/10/27 11:13:29;;;;;;;2.03;0.90;;;13.10;99.90;;;;;;5132758;27;20351;-66
2023/10/27 11:15:55;;;;;;;4.30;0.80;;;13.10;99.90;;;;;;5133618;27;20058;-67
2023/10/27 11:18:21;;;;;;;2.67;0.77;;;13.20;99.90;;;;;;5132708;27;20019;-66
2023/10/27 11:20:49;;;;;;;2.90;1.05;;;13.20;99.90;;;;;;5133983;27;20021;-66
2023/10/27 11:23:16;;;;;;;4.22;1.23;;;13.20;99.90;;;;;;5133209;27;20452;-66
2023/10/27 11:25:42;;;;;;;2.97;0.90;;;13.30;99.90;;;;;;5133705;27;20034;-66
2023/10/27 11:28:26;;;;;;;7.38;0.93;;;13.50;99.90;;;;;;5133534;27;20015;-66
2023/10/27 11:31:19;;;;;;;5.90;0.98;;;13.60;99.90;;;;;;5125401;27;20015;-66
2023/10/27 11:34:04;;;;;;;2.22;0.55;;;13.60;99.90;;;;;;5124857;27;20076;-66
2023/10/27 11:36:42;;;;;;;4.07;1.00;;;13.60;99.90;;;;;;5132762;27;20027;-66
2023/10/27 11:39:20;;;;;;;6.78;1.13;;;13.60;99.90;;;;;;5133208;27;20563;-66
2023/10/27 11:42:01;;;;;;;21.98;2.03;;;13.70;99.90;;;;;;5133588;27;20110;-66
2023/10/27 11:44:28;;;;;;;3.55;1.08;;;13.80;99.90;;;;;;5132260;27;20049;-66
2023/10/27 11:46:58;;;;;;;2.75;0.98;;;13.90;99.90;;;;;;5133273;27;20027;-66
2023/10/27 11:49:25;;;;;;;4.05;0.70;;;13.90;99.90;;;;;;5132725;27;20105;-67
2023/10/27 11:51:53;;;;;;;3.70;1.00;;;14.00;99.90;;;;;;5129976;27;20127;-66
2023/10/27 11:54:19;;;;;;;4.80;1.30;;;14.10;99.90;;;;;;5128902;27;20050;-67
2023/10/27 11:56:46;;;;;;;3.65;0.88;;;14.30;99.90;;;;;;5133458;27;20126;-67
2023/10/27 11:59:12;;;;;;;4.10;1.20;;;14.50;99.90;;;;;;5132725;27;20065;-67
2023/10/27 12:01:39;;;;;;;3.28;0.90;;;14.60;99.90;;;;;;5121197;27;20729;-68
2023/10/27 12:04:10;;;;;;;5.85;0.93;;;14.60;99.90;;;;;;5132067;27;20034;-67
2023/10/27 12:06:42;;;;;;;2.92;1.25;;;14.70;99.90;;;;;;5124960;27;20266;-67
2023/10/27 12:09:09;;;;;;;4.00;1.00;;;14.90;99.90;;;;;;5132584;27;20022;-68
2023/10/27 12:11:35;;;;;;;5.53;0.90;;;15.10;99.90;;;;;;5123003;27;20115;-67
2023/10/27 12:14:01;;;;;;;2.60;0.80;;;15.30;99.90;;;;;;5132650;27;20030;-68
2023/10/27 12:16:29;;;;;;;11.13;1.10;;;15.40;99.90;;;;;;5126291;27;20051;-67
2023/10/27 12:18:56;;;;;;;3.15;0.95;;;15.60;99.90;;;;;;5132496;27;20027;-67
2023/10/27 12:21:26;;;;;;;5.45;1.20;;;;;;;;;;5127140;27;20141;-67
2023/10/27 12:23:52;;;;;;;6.35;0.88;;;15.90;99.90;;;;;;5132193;27;20352;-67
2023/10/27 12:26:20;;;;;;;3.55;0.85;;;16.10;99.90;;;;;;5128107;27;20031;-68
2023/10/27 12:28:46;;;;;;;1.58;0.55;;;;;;;;;;5131778;27;20019;-68
2023/10/27 12:31:13;;;;;;;2.03;0.90;;;;;;;;;;5127741;27;20064;-67
2023/10/27 12:33:39;;;;;;;1.38;0.60;;;;;;;;;;5131446;27;20110;-67
2023/10/27 12:36:09;;;;;;;1.85;0.50;;;;;;;;;;5132395;27;20031;-67
2023/10/27 12:38:35;;;;;;;2.80;0.93;;;;;;;;;;5129247;27;20031;-67
2023/10/27 12:41:01;;;;;;;1.45;0.60;;;;;;;;;;5129044;27;20068;-68
2023/10/27 12:43:28;;;;;;;2.22;1.35;;;;;;;;;;5122342;27;20460;-68
2023/10/27 12:45:54;;;;;;;2.72;1.15;;;;;;;;;;5130263;27;20027;-68
2023/10/27 12:48:20;;;;;;;2.05;0.70;;;;;;;;;;5131149;27;20019;-68
2023/10/27 12:50:47;;;;;;;2.67;0.98;;;;;;;;;;5132189;27;20023;-68
2023/10/27 12:53:13;;;;;;;2.35;0.70;;;;;;;;;;5131798;27;20039;-69
2023/10/27 12:55:39;;;;;;;2.78;0.70;;;;;;;;;;5131842;27;20059;-68
2023/10/27 12:58:08;;;;;;;1.77;0.73;;;;;;;;;;5126847;28;20110;-68